createdAt,value
2022-10-07T00:00:53.763Z,2.25
2022-10-07T00:03:55.940Z,2.35
2022-10-07T00:06:57.964Z,2.35
2022-10-07T00:10:00.188Z,2.80
2022-10-07T00:13:02.633Z,2.25
2022-10-07T00:16:17.373Z,2.35
2022-10-07T00:19:20.057Z,2.20
2022-10-07T00:22:22.052Z,2.65
2022-10-07T00:25:24.185Z,2.10
2022-10-07T00:28:26.245Z,2.35
2022-10-07T00:31:31.232Z,2.40
2022-10-07T00:34:33.111Z,2.25
2022-10-07T00:37:36.241Z,2.25
2022-10-07T00:41:04.789Z,2.25
2022-10-07T00:44:34.750Z,2.22
2022-10-07T00:47:36.810Z,1.95
2022-10-07T00:50:38.791Z,2.22
2022-10-07T00:53:42.069Z,2.17
2022-10-07T00:56:46.512Z,2.40
2022-10-07T00:59:48.515Z,2.45
2022-10-07T01:02:51.669Z,2.25
2022-10-07T01:05:53.471Z,2.25
2022-10-07T01:08:55.578Z,2.17
2022-10-07T01:12:11.117Z,2.05
2022-10-07T01:15:32.545Z,2.47
2022-10-07T01:18:44.657Z,2.53
2022-10-07T01:22:19.947Z,2.28
2022-10-07T01:25:32.208Z,2.28
2022-10-07T01:28:55.231Z,2.53
2022-10-07T01:32:04.954Z,2.22
2022-10-07T01:35:12.998Z,2.05
2022-10-07T01:38:19.837Z,2.25
2022-10-07T01:41:23.777Z,2.47
2022-10-07T01:44:29.826Z,2.55
2022-10-07T01:47:33.550Z,2.53
2022-10-07T01:50:37.450Z,2.35
2022-10-07T01:54:10.571Z,2.50
2022-10-07T01:57:29.763Z,2.50
2022-10-07T02:00:38.480Z,2.58
2022-10-07T02:04:03.003Z,2.70
2022-10-07T02:07:17.861Z,2.60
2022-10-07T02:10:28.483Z,2.35
2022-10-07T02:14:07.318Z,2.55
2022-10-07T02:17:18.931Z,2.60
2022-10-07T02:20:25.432Z,2.60
2022-10-07T02:23:28.946Z,2.58
2022-10-07T02:26:34.290Z,2.53
2022-10-07T02:29:40.059Z,2.80
2022-10-07T02:32:48.258Z,2.40
2022-10-07T02:36:10.698Z,2.42
2022-10-07T02:39:15.548Z,2.78
2022-10-07T02:42:43.378Z,2.70
2022-10-07T02:46:07.440Z,2.35
2022-10-07T02:49:13.450Z,2.35
2022-10-07T02:52:19.266Z,2.70
2022-10-07T02:55:27.897Z,2.72
2022-10-07T02:58:29.934Z,2.50
2022-10-07T03:01:45.351Z,2.60
2022-10-07T03:04:49.042Z,2.45
2022-10-07T03:08:11.320Z,2.40
2022-10-07T03:11:16.170Z,2.50
2022-10-07T03:14:19.089Z,2.50
2022-10-07T03:17:21.777Z,2.30
2022-10-07T03:20:24.951Z,2.65
2022-10-07T03:23:31.376Z,2.47
2022-10-07T03:29:36.858Z,2.63
2022-10-07T03:32:41.430Z,2.55
2022-10-07T03:35:45.076Z,2.83
2022-10-07T03:38:48.222Z,2.65
2022-10-07T03:41:51.533Z,2.45
2022-10-07T03:44:53.559Z,2.85
2022-10-07T03:47:56.670Z,2.35
2022-10-07T03:50:59.330Z,2.42
2022-10-07T03:54:03.823Z,2.60
2022-10-07T03:57:27.578Z,2.30
2022-10-07T04:00:31.019Z,2.90
2022-10-07T04:03:33.782Z,2.78
2022-10-07T04:06:35.940Z,2.80
2022-10-07T04:09:41.408Z,2.50
2022-10-07T04:12:47.404Z,2.63
2022-10-07T04:15:51.568Z,2.63
2022-10-07T04:18:58.855Z,2.60
2022-10-07T04:22:08.327Z,2.58
2022-10-07T04:25:31.134Z,2.70
2022-10-07T04:28:34.152Z,3.20
2022-10-07T04:31:43.820Z,2.90
2022-10-07T04:34:45.891Z,2.72
2022-10-07T04:37:54.197Z,3.72
2022-10-07T04:41:02.576Z,3.25
2022-10-07T04:44:04.453Z,2.72
2022-10-07T04:47:11.928Z,2.90
2022-10-07T04:50:14.366Z,2.75
2022-10-07T04:53:16.915Z,3.08
2022-10-07T04:56:21.765Z,2.70
2022-10-07T04:59:27.953Z,3.10
2022-10-07T05:02:31.976Z,2.53
2022-10-07T05:05:34.598Z,2.60
2022-10-07T05:08:36.972Z,2.88
2022-10-07T05:11:40.384Z,2.53
2022-10-07T05:14:48.144Z,2.97
2022-10-07T05:17:53.029Z,2.65
2022-10-07T05:20:56.007Z,2.63
2022-10-07T05:24:00.226Z,3.10
2022-10-07T05:27:15.740Z,3.00
2022-10-07T05:30:19.203Z,4.25
2022-10-07T05:33:21.194Z,4.60
2022-10-07T05:36:25.096Z,5.03
2022-10-07T05:39:30.087Z,4.50
2022-10-07T05:42:49.149Z,3.35
2022-10-07T05:46:01.575Z,2.97
2022-10-07T05:49:06.314Z,2.90
2022-10-07T05:52:10.498Z,3.00
2022-10-07T05:55:13.547Z,2.88
2022-10-07T05:58:15.786Z,2.90
2022-10-07T06:01:19.926Z,2.72
2022-10-07T06:04:22.342Z,2.78
2022-10-07T06:07:29.324Z,2.95
2022-10-07T06:10:56.695Z,3.80
2022-10-07T06:14:01.588Z,4.70
2022-10-07T06:17:06.100Z,3.58
2022-10-07T06:20:15.615Z,3.75
2022-10-07T06:23:23.893Z,3.40
2022-10-07T06:26:26.346Z,3.00
2022-10-07T06:29:34.924Z,3.20
2022-10-07T06:32:37.283Z,2.67
2022-10-07T06:35:39.843Z,3.03
2022-10-07T06:38:46.469Z,3.60
2022-10-07T06:41:48.894Z,3.20
2022-10-07T06:45:00.418Z,2.90
2022-10-07T06:48:02.747Z,3.40
2022-10-07T06:51:06.122Z,2.90
2022-10-07T06:54:13.007Z,2.58
2022-10-07T06:57:43.592Z,2.90
2022-10-07T07:00:39.463Z,3.05
2022-10-07T07:03:42.414Z,2.60
2022-10-07T07:06:44.977Z,2.90
2022-10-07T07:09:46.964Z,3.20
2022-10-07T07:12:49.029Z,2.78
2022-10-07T07:15:57.435Z,2.95
2022-10-07T07:19:03.312Z,3.08
2022-10-07T07:22:06.084Z,2.50
2022-10-07T07:25:10.104Z,2.95
2022-10-07T07:28:15.647Z,3.15
2022-10-07T07:31:18.430Z,3.13
2022-10-07T07:34:21.698Z,2.90
2022-10-07T07:37:24.913Z,2.78
2022-10-07T07:40:29.923Z,2.90
2022-10-07T07:43:36.144Z,2.80
2022-10-07T07:46:43.458Z,3.03
2022-10-07T07:49:46.352Z,3.22
2022-10-07T07:52:57.482Z,3.17
2022-10-07T07:56:02.543Z,2.83
2022-10-07T07:59:08.212Z,2.97
2022-10-07T08:02:12.706Z,2.70
2022-10-07T08:05:23.876Z,3.42
2022-10-07T08:08:31.221Z,2.75
2022-10-07T08:11:33.951Z,3.00
2022-10-07T08:14:38.372Z,3.10
2022-10-07T08:17:41.188Z,2.45
2022-10-07T08:20:43.412Z,2.85
2022-10-07T08:23:48.594Z,2.92
2022-10-07T08:26:56.393Z,2.83
2022-10-07T08:29:58.669Z,3.05
2022-10-07T08:33:01.618Z,3.50
2022-10-07T08:36:05.304Z,3.08
2022-10-07T08:39:07.539Z,2.90
2022-10-07T08:42:18.600Z,2.78
2022-10-07T08:45:31.922Z,3.00
2022-10-07T08:48:38.969Z,2.65
2022-10-07T08:51:50.772Z,2.72
2022-10-07T08:54:53.069Z,2.92
2022-10-07T08:58:04.531Z,3.03
2022-10-07T09:01:28.145Z,2.47
2022-10-07T09:05:15.500Z,2.95
2022-10-07T09:08:33.001Z,3.05
2022-10-07T09:11:36.144Z,3.28
2022-10-07T09:14:42.106Z,3.22
2022-10-07T09:17:54.491Z,3.63
2022-10-07T09:20:56.764Z,2.90
2022-10-07T09:24:23.604Z,3.35
2022-10-07T09:30:29.585Z,3.10
2022-10-07T09:33:41.847Z,2.90
2022-10-07T09:37:09.801Z,3.00
2022-10-07T09:41:02.240Z,2.92
2022-10-07T09:44:03.929Z,3.22
2022-10-07T09:47:24.433Z,3.30
2022-10-07T09:50:31.411Z,3.25
2022-10-07T09:53:33.997Z,2.63
2022-10-07T09:56:45.765Z,2.90
2022-10-07T09:59:47.584Z,2.97
2022-10-07T10:03:06.299Z,2.97
2022-10-07T10:06:10.552Z,2.97
2022-10-07T10:09:18.127Z,3.22
2022-10-07T10:12:24.237Z,2.72
2022-10-07T10:15:39.543Z,3.25
2022-10-07T10:18:53.293Z,3.25
2022-10-07T10:21:57.747Z,2.90
2022-10-07T10:25:18.142Z,3.08
2022-10-07T10:28:39.304Z,3.35
2022-10-07T10:32:02.095Z,3.20
2022-10-07T10:35:16.353Z,3.17
2022-10-07T10:38:33.681Z,3.88
2022-10-07T10:41:50.746Z,3.60
2022-10-07T10:44:52.438Z,3.75
2022-10-07T10:48:03.190Z,3.70
2022-10-07T10:51:14.253Z,4.10
2022-10-07T10:54:55.488Z,3.35
2022-10-07T10:58:14.003Z,3.80
2022-10-07T11:01:24.016Z,3.67
2022-10-07T11:04:41.297Z,3.47
2022-10-07T11:07:52.400Z,3.53
2022-10-07T11:10:54.079Z,3.67
2022-10-07T11:14:04.835Z,3.30
2022-10-07T11:17:09.473Z,3.85
2022-10-07T11:20:20.125Z,3.70
2022-10-07T11:23:27.713Z,3.53
2022-10-07T11:26:36.300Z,3.30
2022-10-07T11:29:49.404Z,3.30
2022-10-07T11:32:57.324Z,3.42
2022-10-07T11:36:13.834Z,3.88
2022-10-07T11:39:15.801Z,3.42
2022-10-07T11:42:24.807Z,3.40
2022-10-07T11:45:33.980Z,3.53
2022-10-07T11:48:54.632Z,3.15
2022-10-07T11:52:02.053Z,3.42
2022-10-07T11:55:09.521Z,3.63
2022-10-07T11:58:27.041Z,3.40
2022-10-07T12:01:29.419Z,3.42
2022-10-07T12:04:31.258Z,3.10
2022-10-07T12:07:33.258Z,3.78
2022-10-07T12:10:35.738Z,3.72
2022-10-07T12:13:42.512Z,3.38
2022-10-07T12:16:55.247Z,3.58
2022-10-07T12:20:37.209Z,3.40
2022-10-07T12:23:40.729Z,2.90
2022-10-07T12:27:07.298Z,3.38
2022-10-07T12:30:49.164Z,3.60
2022-10-07T12:34:06.191Z,2.85
2022-10-07T12:37:43.421Z,3.30
2022-10-07T12:40:58.164Z,3.47
2022-10-07T12:44:06.276Z,2.92
2022-10-07T12:47:29.727Z,3.10
2022-10-07T12:50:33.677Z,3.17
2022-10-07T12:53:41.686Z,3.10
2022-10-07T12:56:44.822Z,3.10
2022-10-07T13:00:11.421Z,3.35
2022-10-07T13:03:28.633Z,3.13
2022-10-07T13:06:49.012Z,3.72
2022-10-07T13:10:09.296Z,3.30
2022-10-07T13:13:25.205Z,3.45
2022-10-07T13:16:27.441Z,3.63
2022-10-07T13:19:58.949Z,3.40
2022-10-07T13:23:23.208Z,3.25
2022-10-07T13:26:28.179Z,2.95
2022-10-07T13:29:35.581Z,3.25
2022-10-07T13:32:37.406Z,3.20
2022-10-07T13:35:39.941Z,3.50
2022-10-07T13:38:43.227Z,3.35
2022-10-07T13:41:50.751Z,3.70
2022-10-07T13:44:52.570Z,3.40
2022-10-07T13:47:56.125Z,3.80
2022-10-07T13:50:59.500Z,3.05
2022-10-07T13:54:05.739Z,3.22
2022-10-07T13:57:12.589Z,3.25
2022-10-07T14:00:16.398Z,3.30
2022-10-07T14:03:18.913Z,3.10
2022-10-07T14:06:37.950Z,2.92
2022-10-07T14:09:59.057Z,3.58
2022-10-07T14:13:07.365Z,3.33
2022-10-07T14:16:22.368Z,3.80
2022-10-07T14:19:24.175Z,3.20
2022-10-07T14:22:50.436Z,3.10
2022-10-07T14:25:55.024Z,3.22
2022-10-07T14:28:56.871Z,3.05
2022-10-07T14:32:38.481Z,3.28
2022-10-07T14:35:40.928Z,3.38
2022-10-07T14:38:44.566Z,3.25
2022-10-07T14:41:47.147Z,3.25
2022-10-07T14:44:49.982Z,3.13
2022-10-07T14:47:51.766Z,3.50
2022-10-07T14:50:53.597Z,3.03
2022-10-07T14:54:03.984Z,3.13
2022-10-07T14:57:06.155Z,3.45
2022-10-07T15:00:17.605Z,3.70
2022-10-07T15:03:19.385Z,3.30
2022-10-07T15:06:21.608Z,3.80
2022-10-07T15:09:23.608Z,3.50
2022-10-07T15:12:26.302Z,3.40
2022-10-07T15:15:29.070Z,3.60
2022-10-07T15:18:30.776Z,3.28
2022-10-07T15:21:32.599Z,3.40
2022-10-07T15:24:34.405Z,3.05
2022-10-07T15:27:37.885Z,3.10
2022-10-07T15:30:39.812Z,3.47
2022-10-07T15:33:42.690Z,3.40
2022-10-07T15:36:45.338Z,3.20
2022-10-07T15:39:47.049Z,3.30
2022-10-07T15:42:48.999Z,3.13
2022-10-07T15:45:51.668Z,3.97
2022-10-07T15:48:58.648Z,3.38
2022-10-07T15:52:01.560Z,4.00
2022-10-07T15:55:08.349Z,3.47
2022-10-07T15:58:10.094Z,3.60
2022-10-07T16:01:12.891Z,4.20
2022-10-07T16:04:15.262Z,4.18
2022-10-07T16:07:16.965Z,3.80
2022-10-07T16:10:18.919Z,3.65
2022-10-07T16:13:23.152Z,3.15
2022-10-07T16:16:27.061Z,3.28
2022-10-07T16:19:28.692Z,3.40
2022-10-07T16:22:31.207Z,3.08
2022-10-07T16:25:35.430Z,3.25
2022-10-07T16:29:07.194Z,3.20
2022-10-07T16:32:11.329Z,2.97
2022-10-07T16:35:13.164Z,3.03
2022-10-07T16:38:15.487Z,3.50
2022-10-07T16:41:18.395Z,3.13
2022-10-07T16:44:21.013Z,3.53
2022-10-07T16:47:22.928Z,3.13
2022-10-07T16:50:24.662Z,3.42
2022-10-07T16:53:27.250Z,3.17
2022-10-07T16:56:33.889Z,3.80
2022-10-07T16:59:35.576Z,3.22
2022-10-07T17:02:37.237Z,3.35
2022-10-07T17:05:39.442Z,3.55
2022-10-07T17:08:47.450Z,3.70
2022-10-07T17:11:49.950Z,3.45
2022-10-07T17:14:51.816Z,3.55
2022-10-07T17:17:53.759Z,3.53
2022-10-07T17:20:56.424Z,3.63
2022-10-07T17:23:58.312Z,3.65
2022-10-07T17:26:59.919Z,3.45
2022-10-07T17:30:02.750Z,3.35
2022-10-07T17:33:05.269Z,3.45
2022-10-07T17:36:08.701Z,3.45
2022-10-07T17:39:11.574Z,2.95
2022-10-07T17:42:13.185Z,3.17
2022-10-07T17:45:14.849Z,3.15
2022-10-07T17:48:16.665Z,3.47
2022-10-07T17:51:20.517Z,3.20
2022-10-07T17:54:23.975Z,2.92
2022-10-07T17:57:25.872Z,3.05
2022-10-07T18:00:28.057Z,3.70
2022-10-07T18:03:30.228Z,3.75
2022-10-07T18:06:34.499Z,3.72
2022-10-07T18:09:36.491Z,3.60
2022-10-07T18:12:56.976Z,3.88
2022-10-07T18:16:00.193Z,3.83
2022-10-07T18:19:02.452Z,4.05
2022-10-07T18:22:04.252Z,4.47
2022-10-07T18:25:06.861Z,10.70
2022-10-07T18:28:08.601Z,5.03
2022-10-07T18:31:12.402Z,12.38
2022-10-07T18:34:14.598Z,22.42
2022-10-07T18:37:17.028Z,7.68
2022-10-07T18:40:18.787Z,4.35
2022-10-07T18:43:20.976Z,3.88
2022-10-07T18:46:23.519Z,3.85
2022-10-07T18:49:25.510Z,3.50
2022-10-07T18:52:27.388Z,5.45
2022-10-07T18:55:33.446Z,3.67
2022-10-07T18:58:58.411Z,3.92
2022-10-07T19:02:03.874Z,3.70
2022-10-07T19:05:08.969Z,4.13
2022-10-07T19:08:10.871Z,3.90
2022-10-07T19:11:18.543Z,4.35
2022-10-07T19:14:20.922Z,3.30
2022-10-07T19:17:23.169Z,4.00
2022-10-07T19:20:25.177Z,3.50
2022-10-07T19:23:29.127Z,3.75
2022-10-07T19:26:36.128Z,3.50
2022-10-07T19:29:38.082Z,3.33
2022-10-07T19:32:39.994Z,3.78
2022-10-07T19:35:42.014Z,3.42
2022-10-07T19:38:45.882Z,3.50
2022-10-07T19:41:48.454Z,3.45
2022-10-07T19:44:50.339Z,3.92
2022-10-07T19:47:52.065Z,3.50
2022-10-07T19:50:58.042Z,4.07
2022-10-07T19:54:02.236Z,3.80
2022-10-07T19:57:04.247Z,3.70
2022-10-07T20:00:06.586Z,4.10
2022-10-07T20:03:14.189Z,3.35
2022-10-07T20:06:16.561Z,3.75
2022-10-07T20:09:20.309Z,3.65
2022-10-07T20:12:22.436Z,3.83
2022-10-07T20:15:24.150Z,3.67
2022-10-07T20:18:25.911Z,3.63
2022-10-07T20:21:28.916Z,3.85
2022-10-07T20:24:30.957Z,3.63
2022-10-07T20:27:34.175Z,4.00
2022-10-07T20:30:35.986Z,3.70
2022-10-07T20:33:42.595Z,4.05
2022-10-07T20:36:50.590Z,3.67
2022-10-07T20:40:11.067Z,3.70
2022-10-07T20:43:13.058Z,4.22
2022-10-07T20:46:14.794Z,3.67
2022-10-07T20:49:23.120Z,3.42
2022-10-07T20:52:27.153Z,3.42
2022-10-07T20:55:30.986Z,4.18
2022-10-07T20:58:37.517Z,4.00
2022-10-07T21:01:41.124Z,4.00
2022-10-07T21:04:43.508Z,4.25
2022-10-07T21:07:45.479Z,4.78
2022-10-07T21:10:48.759Z,5.00
2022-10-07T21:13:50.396Z,4.63
2022-10-07T21:16:53.670Z,4.13
2022-10-07T21:19:55.979Z,3.90
2022-10-07T21:22:58.244Z,3.70
2022-10-07T21:26:01.754Z,4.03
2022-10-07T21:29:05.115Z,3.75
2022-10-07T21:32:07.004Z,3.65
2022-10-07T21:35:10.209Z,3.97
2022-10-07T21:38:14.515Z,3.80
2022-10-07T21:41:20.651Z,4.55
2022-10-07T21:44:22.347Z,3.72
2022-10-07T21:47:24.527Z,4.50
2022-10-07T21:50:27.573Z,4.00
2022-10-07T21:53:30.510Z,3.90
2022-10-07T21:56:34.535Z,4.05
2022-10-07T21:59:36.728Z,4.43
2022-10-07T22:02:39.142Z,4.18
2022-10-07T22:05:41.219Z,3.60
2022-10-07T22:08:45.301Z,4.07
2022-10-07T22:11:47.604Z,3.97
2022-10-07T22:14:49.378Z,4.10
2022-10-07T22:17:51.252Z,4.20
2022-10-07T22:20:52.960Z,4.78
2022-10-07T22:23:59.703Z,4.30
2022-10-07T22:27:03.653Z,4.20
2022-10-07T22:30:06.963Z,4.68
2022-10-07T22:33:11.181Z,4.10
2022-10-07T22:36:16.450Z,4.10
2022-10-07T22:39:18.384Z,3.88
2022-10-07T22:42:20.188Z,3.78
2022-10-07T22:45:21.980Z,3.95
2022-10-07T22:48:24.819Z,3.95
2022-10-07T22:51:29.767Z,3.78
2022-10-07T22:54:31.494Z,4.25
2022-10-07T22:57:33.514Z,3.95
2022-10-07T23:00:35.378Z,3.83
2022-10-07T23:03:39.482Z,3.75
2022-10-07T23:06:41.396Z,4.10
2022-10-07T23:09:43.505Z,4.20
2022-10-07T23:12:45.499Z,4.25
2022-10-07T23:15:58.955Z,4.47
2022-10-07T23:19:00.977Z,4.50
2022-10-07T23:22:02.702Z,4.25
2022-10-07T23:25:04.854Z,4.40
2022-10-07T23:28:06.835Z,4.85
2022-10-07T23:31:11.103Z,4.55
2022-10-07T23:34:14.082Z,4.50
2022-10-07T23:37:15.664Z,4.40
2022-10-07T23:40:17.265Z,4.57
2022-10-07T23:43:19.033Z,4.25
2022-10-07T23:46:22.668Z,4.47
2022-10-07T23:49:24.816Z,4.25
2022-10-07T23:52:26.475Z,4.18
2022-10-07T23:55:28.598Z,4.78
2022-10-07T23:58:31.875Z,4.22
